sensor_id;sensor_type;location;lat;lon;timestamp;pressure;altitude;pressure_sealevel;temperature;humidity
36828;BME280;22766;48.042;11.192;2024-03-02T00:00:27;93942.91;;;5.20;100.00
36828;BME280;22766;48.042;11.192;2024-03-02T00:02:54;93941.13;;;5.21;100.00
36828;BME280;22766;48.042;11.192;2024-03-02T00:05:22;93940.19;;;5.22;100.00
36828;BME280;22766;48.042;11.192;2024-03-02T00:07:57;93939.22;;;5.23;100.00
36828;BME280;22766;48.042;11.192;2024-03-02T00:10:25;93932.38;;;5.23;100.00
36828;BME280;22766;48.042;11.192;2024-03-02T00:12:58;93929.00;;;5.23;100.00
36828;BME280;22766;48.042;11.192;2024-03-02T00:15:47;93928.06;;;5.24;100.00
36828;BME280;22766;48.042;11.192;2024-03-02T00:18:18;93924.19;;;5.20;100.00
36828;BME280;22766;48.042;11.192;2024-03-02T00:20:46;93922.19;;;5.14;100.00
36828;BME280;22766;48.042;11.192;2024-03-02T00:23:15;93920.88;;;5.10;100.00
36828;BME280;22766;48.042;11.192;2024-03-02T00:25:44;93922.34;;;5.12;100.00
36828;BME280;22766;48.042;11.192;2024-03-02T00:28:24;93924.09;;;5.12;100.00
36828;BME280;22766;48.042;11.192;2024-03-02T00:30:56;93928.41;;;5.11;100.00
36828;BME280;22766;48.042;11.192;2024-03-02T00:33:26;93923.16;;;5.13;100.00
36828;BME280;22766;48.042;11.192;2024-03-02T00:35:54;93923.94;;;5.13;100.00
36828;BME280;22766;48.042;11.192;2024-03-02T00:38:20;93925.72;;;5.13;100.00
36828;BME280;22766;48.042;11.192;2024-03-02T00:40:48;93926.00;;;5.10;100.00
36828;BME280;22766;48.042;11.192;2024-03-02T00:45:47;93928.34;;;5.03;100.00
36828;BME280;22766;48.042;11.192;2024-03-02T00:48:15;93930.19;;;5.11;100.00
36828;BME280;22766;48.042;11.192;2024-03-02T00:50:43;93934.84;;;5.15;100.00
36828;BME280;22766;48.042;11.192;2024-03-02T00:53:11;93929.72;;;5.15;100.00
36828;BME280;22766;48.042;11.192;2024-03-02T00:55:39;93937.78;;;5.20;100.00
36828;BME280;22766;48.042;11.192;2024-03-02T00:58:10;93930.03;;;5.12;100.00
36828;BME280;22766;48.042;11.192;2024-03-02T01:00:37;93928.56;;;5.10;100.00
36828;BME280;22766;48.042;11.192;2024-03-02T01:03:04;93929.47;;;5.18;100.00
36828;BME280;22766;48.042;11.192;2024-03-02T01:05:31;93929.16;;;5.21;100.00
36828;BME280;22766;48.042;11.192;2024-03-02T01:07:58;93934.69;;;5.17;100.00
36828;BME280;22766;48.042;11.192;2024-03-02T01:10:24;93927.56;;;5.20;100.00
36828;BME280;22766;48.042;11.192;2024-03-02T01:12:52;93930.91;;;5.21;100.00
36828;BME280;22766;48.042;11.192;2024-03-02T01:15:19;93930.91;;;5.21;100.00
36828;BME280;22766;48.042;11.192;2024-03-02T01:17:46;93926.59;;;5.21;100.00
36828;BME280;22766;48.042;11.192;2024-03-02T01:20:13;93934.13;;;5.23;100.00
36828;BME280;22766;48.042;11.192;2024-03-02T01:22:39;93923.59;;;5.26;100.00
36828;BME280;22766;48.042;11.192;2024-03-02T01:25:08;93921.25;;;5.32;100.00
36828;BME280;22766;48.042;11.192;2024-03-02T01:27:35;93921.97;;;5.42;100.00
36828;BME280;22766;48.042;11.192;2024-03-02T01:30:02;93919.56;;;5.41;100.00
36828;BME280;22766;48.042;11.192;2024-03-02T01:32:28;93921.31;;;5.40;100.00
36828;BME280;22766;48.042;11.192;2024-03-02T01:34:56;93915.25;;;5.41;100.00
36828;BME280;22766;48.042;11.192;2024-03-02T01:37:23;93919.34;;;5.34;100.00
36828;BME280;22766;48.042;11.192;2024-03-02T01:39:49;93913.13;;;5.37;100.00
36828;BME280;22766;48.042;11.192;2024-03-02T01:42:16;93926.53;;;5.31;100.00
36828;BME280;22766;48.042;11.192;2024-03-02T01:44:43;93917.16;;;5.22;100.00
36828;BME280;22766;48.042;11.192;2024-03-02T01:47:10;93914.75;;;5.20;100.00
36828;BME280;22766;48.042;11.192;2024-03-02T01:49:37;93913.22;;;5.27;100.00
36828;BME280;22766;48.042;11.192;2024-03-02T01:52:05;93913.44;;;5.16;100.00
36828;BME280;22766;48.042;11.192;2024-03-02T01:54:32;93915.53;;;5.21;100.00
36828;BME280;22766;48.042;11.192;2024-03-02T01:56:59;93914.59;;;5.22;100.00
36828;BME280;22766;48.042;11.192;2024-03-02T01:59:26;93911.91;;;5.23;100.00
36828;BME280;22766;48.042;11.192;2024-03-02T02:01:54;93912.88;;;5.22;100.00
36828;BME280;22766;48.042;11.192;2024-03-02T02:04:20;93914.59;;;5.22;100.00
36828;BME280;22766;48.042;11.192;2024-03-02T02:06:54;93912.94;;;5.13;100.00
36828;BME280;22766;48.042;11.192;2024-03-02T02:09:20;93906.56;;;4.99;100.00
36828;BME280;22766;48.042;11.192;2024-03-02T02:11:47;93911.53;;;5.01;100.00
36828;BME280;22766;48.042;11.192;2024-03-02T02:14:14;93913.94;;;5.02;100.00
36828;BME280;22766;48.042;11.192;2024-03-02T02:16:41;93905.44;;;5.02;100.00
36828;BME280;22766;48.042;11.192;2024-03-02T02:19:08;93895.47;;;5.08;100.00
36828;BME280;22766;48.042;11.192;2024-03-02T02:21:36;93897.50;;;5.05;100.00
36828;BME280;22766;48.042;11.192;2024-03-02T02:24:03;93901.66;;;5.06;100.00
36828;BME280;22766;48.042;11.192;2024-03-02T02:26:30;93892.91;;;5.08;100.00
36828;BME280;22766;48.042;11.192;2024-03-02T02:28:57;93900.41;;;5.10;100.00
36828;BME280;22766;48.042;11.192;2024-03-02T02:31:23;93896.03;;;5.02;100.00
36828;BME280;22766;48.042;11.192;2024-03-02T02:33:50;93902.03;;;5.11;100.00
36828;BME280;22766;48.042;11.192;2024-03-02T02:36:17;93893.56;;;5.10;100.00
36828;BME280;22766;48.042;11.192;2024-03-02T02:38:46;93895.22;;;5.02;100.00
36828;BME280;22766;48.042;11.192;2024-03-02T02:41:15;93892.66;;;5.02;100.00
36828;BME280;22766;48.042;11.192;2024-03-02T02:43:41;93890.91;;;5.02;100.00
36828;BME280;22766;48.042;11.192;2024-03-02T02:46:08;93886.81;;;5.09;100.00
36828;BME280;22766;48.042;11.192;2024-03-02T02:48:35;93883.16;;;5.12;100.00
36828;BME280;22766;48.042;11.192;2024-03-02T02:51:02;93882.66;;;5.08;100.00
36828;BME280;22766;48.042;11.192;2024-03-02T02:53:29;93882.81;;;5.07;100.00
36828;BME280;22766;48.042;11.192;2024-03-02T02:55:56;93886.53;;;5.12;100.00
36828;BME280;22766;48.042;11.192;2024-03-02T02:58:23;93890.91;;;5.02;100.00
36828;BME280;22766;48.042;11.192;2024-03-02T03:00:50;93889.38;;;4.92;100.00
36828;BME280;22766;48.042;11.192;2024-03-02T03:03:17;93892.72;;;4.92;100.00
36828;BME280;22766;48.042;11.192;2024-03-02T03:05:43;93888.66;;;4.99;100.00
36828;BME280;22766;48.042;11.192;2024-03-02T03:08:10;93893.47;;;5.02;100.00
36828;BME280;22766;48.042;11.192;2024-03-02T03:10:37;93890.16;;;4.92;100.00
36828;BME280;22766;48.042;11.192;2024-03-02T03:13:04;93883.88;;;4.87;100.00
36828;BME280;22766;48.042;11.192;2024-03-02T03:15:30;93877.59;;;4.81;100.00
36828;BME280;22766;48.042;11.192;2024-03-02T03:17:57;93882.06;;;4.79;100.00
36828;BME280;22766;48.042;11.192;2024-03-02T03:20:24;93886.16;;;4.72;100.00
36828;BME280;22766;48.042;11.192;2024-03-02T03:22:51;93879.94;;;4.74;100.00
36828;BME280;22766;48.042;11.192;2024-03-02T03:25:18;93889.50;;;4.72;100.00
36828;BME280;22766;48.042;11.192;2024-03-02T03:27:44;93884.41;;;4.72;100.00
36828;BME280;22766;48.042;11.192;2024-03-02T03:30:12;93892.34;;;4.69;100.00
36828;BME280;22766;48.042;11.192;2024-03-02T03:32:39;93898.63;;;4.75;100.00
36828;BME280;22766;48.042;11.192;2024-03-02T03:35:07;93895.66;;;4.80;100.00
36828;BME280;22766;48.042;11.192;2024-03-02T03:37:34;93907.06;;;4.85;100.00
36828;BME280;22766;48.042;11.192;2024-03-02T03:40:04;93905.66;;;4.91;100.00
36828;BME280;22766;48.042;11.192;2024-03-02T03:42:37;93905.41;;;4.94;100.00
36828;BME280;22766;48.042;11.192;2024-03-02T03:45:07;93909.53;;;4.95;100.00
36828;BME280;22766;48.042;11.192;2024-03-02T03:47:34;93916.03;;;4.89;100.00
36828;BME280;22766;48.042;11.192;2024-03-02T03:50:01;93918.03;;;4.95;100.00
36828;BME280;22766;48.042;11.192;2024-03-02T03:52:32;93921.75;;;5.01;100.00
36828;BME280;22766;48.042;11.192;2024-03-02T03:54:59;93922.19;;;4.96;100.00
36828;BME280;22766;48.042;11.192;2024-03-02T03:57:27;93920.00;;;5.01;100.00
36828;BME280;22766;48.042;11.192;2024-03-02T03:59:54;93922.84;;;4.98;100.00
36828;BME280;22766;48.042;11.192;2024-03-02T04:02:21;93924.84;;;5.04;100.00
36828;BME280;22766;48.042;11.192;2024-03-02T04:04:48;93934.75;;;5.07;100.00
36828;BME280;22766;48.042;11.192;2024-03-02T04:07:14;93935.41;;;5.09;100.00
36828;BME280;22766;48.042;11.192;2024-03-02T04:09:41;93934.63;;;5.09;100.00
36828;BME280;22766;48.042;11.192;2024-03-02T04:12:08;93937.31;;;5.07;100.00
36828;BME280;22766;48.042;11.192;2024-03-02T04:14:35;93943.25;;;5.08;100.00
36828;BME280;22766;48.042;11.192;2024-03-02T04:17:01;93948.09;;;5.11;100.00
36828;BME280;22766;48.042;11.192;2024-03-02T04:19:28;93940.69;;;5.08;100.00
36828;BME280;22766;48.042;11.192;2024-03-02T04:21:55;93948.09;;;5.11;100.00
36828;BME280;22766;48.042;11.192;2024-03-02T04:24:23;93950.34;;;5.14;100.00
36828;BME280;22766;48.042;11.192;2024-03-02T04:26:49;93947.72;;;5.23;100.00
36828;BME280;22766;48.042;11.192;2024-03-02T04:29:16;93945.75;;;5.17;100.00
36828;BME280;22766;48.042;11.192;2024-03-02T04:31:43;93948.69;;;5.22;100.00
36828;BME280;22766;48.042;11.192;2024-03-02T04:34:09;93954.06;;;5.19;100.00
36828;BME280;22766;48.042;11.192;2024-03-02T04:36:37;93942.91;;;5.20;100.00
36828;BME280;22766;48.042;11.192;2024-03-02T04:39:04;93949.47;;;5.23;100.00
36828;BME280;22766;48.042;11.192;2024-03-02T04:41:31;93951.81;;;5.16;100.00
36828;BME280;22766;48.042;11.192;2024-03-02T04:43:57;93945.81;;;5.08;100.00
36828;BME280;22766;48.042;11.192;2024-03-02T04:46:24;93951.72;;;5.08;100.00
36828;BME280;22766;48.042;11.192;2024-03-02T04:48:51;93952.66;;;5.07;100.00
36828;BME280;22766;48.042;11.192;2024-03-02T04:51:22;93956.19;;;5.06;100.00
36828;BME280;22766;48.042;11.192;2024-03-02T04:53:49;93962.59;;;4.93;100.00
36828;BME280;22766;48.042;11.192;2024-03-02T04:56:16;93954.78;;;4.94;100.00
36828;BME280;22766;48.042;11.192;2024-03-02T04:58:58;93963.03;;;4.88;100.00
36828;BME280;22766;48.042;11.192;2024-03-02T05:01:25;93966.22;;;4.90;100.00
36828;BME280;22766;48.042;11.192;2024-03-02T05:03:51;93967.63;;;4.85;100.00
36828;BME280;22766;48.042;11.192;2024-03-02T05:06:18;93963.88;;;4.79;100.00
36828;BME280;22766;48.042;11.192;2024-03-02T05:08:45;93975.47;;;4.73;100.00
36828;BME280;22766;48.042;11.192;2024-03-02T05:11:12;93969.28;;;4.76;100.00
36828;BME280;22766;48.042;11.192;2024-03-02T05:13:58;93968.00;;;4.90;100.00
36828;BME280;22766;48.042;11.192;2024-03-02T05:16:24;93979.03;;;4.63;100.00
36828;BME280;22766;48.042;11.192;2024-03-02T05:18:51;93974.47;;;4.57;100.00
36828;BME280;22766;48.042;11.192;2024-03-02T05:21:18;93973.97;;;4.53;100.00
36828;BME280;22766;48.042;11.192;2024-03-02T05:23:45;93979.94;;;4.44;100.00
36828;BME280;22766;48.042;11.192;2024-03-02T05:26:12;93982.34;;;4.46;100.00
36828;BME280;22766;48.042;11.192;2024-03-02T05:28:42;93978.59;;;4.40;100.00
36828;BME280;22766;48.042;11.192;2024-03-02T05:31:14;93974.81;;;4.44;100.00
36828;BME280;22766;48.042;11.192;2024-03-02T05:33:42;93978.31;;;4.43;100.00
36828;BME280;22766;48.042;11.192;2024-03-02T05:36:09;93967.28;;;4.43;100.00
36828;BME280;22766;48.042;11.192;2024-03-02T05:38:37;93976.72;;;4.42;100.00
36828;BME280;22766;48.042;11.192;2024-03-02T05:41:04;93965.16;;;4.38;100.00
36828;BME280;22766;48.042;11.192;2024-03-02T05:43:31;93967.28;;;4.43;100.00
36828;BME280;22766;48.042;11.192;2024-03-02T05:45:58;93975.38;;;4.38;100.00
36828;BME280;22766;48.042;11.192;2024-03-02T05:48:25;93979.28;;;4.33;100.00
36828;BME280;22766;48.042;11.192;2024-03-02T05:50:52;93970.16;;;4.30;100.00
36828;BME280;22766;48.042;11.192;2024-03-02T05:53:18;93970.56;;;4.26;100.00
36828;BME280;22766;48.042;11.192;2024-03-02T05:55:45;93975.13;;;4.32;100.00
36828;BME280;22766;48.042;11.192;2024-03-02T05:58:12;93976.75;;;4.33;100.00
36828;BME280;22766;48.042;11.192;2024-03-02T06:00:58;93974.97;;;4.33;100.00
36828;BME280;22766;48.042;11.192;2024-03-02T06:03:25;93975.38;;;4.38;100.00
36828;BME280;22766;48.042;11.192;2024-03-02T06:05:52;93969.88;;;4.24;100.00
36828;BME280;22766;48.042;11.192;2024-03-02T06:08:18;93971.75;;;4.31;100.00
36828;BME280;22766;48.042;11.192;2024-03-02T06:10:45;93972.97;;;4.37;100.00
36828;BME280;22766;48.042;11.192;2024-03-02T06:13:12;93967.66;;;4.48;100.00
36828;BME280;22766;48.042;11.192;2024-03-02T06:15:39;93964.72;;;4.43;100.00
36828;BME280;22766;48.042;11.192;2024-03-02T06:18:06;93970.13;;;4.40;100.00
36828;BME280;22766;48.042;11.192;2024-03-02T06:20:34;93963.94;;;4.42;100.00
36828;BME280;22766;48.042;11.192;2024-03-02T06:23:03;93966.16;;;4.55;100.00
36828;BME280;22766;48.042;11.192;2024-03-02T06:25:30;93968.97;;;4.61;100.00
36828;BME280;22766;48.042;11.192;2024-03-02T06:27:57;93966.47;;;4.69;100.00
36828;BME280;22766;48.042;11.192;2024-03-02T06:30:24;93969.59;;;4.63;100.00
36828;BME280;22766;48.042;11.192;2024-03-02T06:32:51;93972.16;;;4.63;100.00
36828;BME280;22766;48.042;11.192;2024-03-02T06:35:17;93972.16;;;4.63;100.00
36828;BME280;22766;48.042;11.192;2024-03-02T06:37:44;93974.34;;;4.58;100.00
36828;BME280;22766;48.042;11.192;2024-03-02T06:40:11;93965.28;;;4.64;100.00
36828;BME280;22766;48.042;11.192;2024-03-02T06:42:38;93967.28;;;4.70;100.00
36828;BME280;22766;48.042;11.192;2024-03-02T06:45:05;93969.19;;;4.68;100.00
36828;BME280;22766;48.042;11.192;2024-03-02T06:47:32;93962.84;;;4.72;100.00
36828;BME280;22766;48.042;11.192;2024-03-02T06:49:58;93967.41;;;4.78;100.00
36828;BME280;22766;48.042;11.192;2024-03-02T06:52:25;93979.06;;;4.81;100.00
36828;BME280;22766;48.042;11.192;2024-03-02T06:54:52;93976.16;;;4.75;100.00
36828;BME280;22766;48.042;11.192;2024-03-02T06:57:19;93977.72;;;4.86;100.00
36828;BME280;22766;48.042;11.192;2024-03-02T06:59:47;93968.56;;;4.84;100.00
36828;BME280;22766;48.042;11.192;2024-03-02T07:02:17;93968.88;;;4.98;100.00
36828;BME280;22766;48.042;11.192;2024-03-02T07:04:46;93967.44;;;5.13;100.00
36828;BME280;22766;48.042;11.192;2024-03-02T07:07:13;93971.50;;;5.33;100.00
36828;BME280;22766;48.042;11.192;2024-03-02T07:09:40;93973.91;;;5.35;100.00
36828;BME280;22766;48.042;11.192;2024-03-02T07:12:07;93973.09;;;5.52;100.00
36828;BME280;22766;48.042;11.192;2024-03-02T07:14:34;93982.31;;;5.62;100.00
36828;BME280;22766;48.042;11.192;2024-03-02T07:17:26;93986.09;;;5.58;100.00
36828;BME280;22766;48.042;11.192;2024-03-02T07:19:53;93987.50;;;5.53;100.00
36828;BME280;22766;48.042;11.192;2024-03-02T07:22:20;93982.19;;;5.64;100.00
36828;BME280;22766;48.042;11.192;2024-03-02T07:24:47;93987.28;;;5.64;100.00
36828;BME280;22766;48.042;11.192;2024-03-02T07:27:15;93991.41;;;5.92;100.00
36828;BME280;22766;48.042;11.192;2024-03-02T07:29:42;93982.47;;;5.96;100.00
36828;BME280;22766;48.042;11.192;2024-03-02T07:32:10;93988.31;;;5.53;100.00
36828;BME280;22766;48.042;11.192;2024-03-02T07:34:36;93993.94;;;5.57;100.00
36828;BME280;22766;48.042;11.192;2024-03-02T07:37:06;93986.63;;;5.62;100.00
36828;BME280;22766;48.042;11.192;2024-03-02T07:39:33;93991.81;;;5.70;100.00
36828;BME280;22766;48.042;11.192;2024-03-02T07:42:00;93992.25;;;5.65;100.00
36828;BME280;22766;48.042;11.192;2024-03-02T07:44:27;93990.22;;;5.87;100.00
36828;BME280;22766;48.042;11.192;2024-03-02T07:46:54;93984.47;;;6.10;100.00
36828;BME280;22766;48.042;11.192;2024-03-02T07:49:21;93990.22;;;6.30;100.00
36828;BME280;22766;48.042;11.192;2024-03-02T07:51:47;93990.75;;;6.41;100.00
36828;BME280;22766;48.042;11.192;2024-03-02T07:54:14;93989.94;;;6.67;100.00
36828;BME280;22766;48.042;11.192;2024-03-02T07:56:41;93992.41;;;6.84;100.00
36828;BME280;22766;48.042;11.192;2024-03-02T07:59:08;93997.75;;;6.65;100.00
36828;BME280;22766;48.042;11.192;2024-03-02T08:01:34;93995.91;;;6.75;100.00
36828;BME280;22766;48.042;11.192;2024-03-02T08:04:02;94005.88;;;6.52;100.00
36828;BME280;22766;48.042;11.192;2024-03-02T08:06:31;93997.19;;;6.20;100.00
36828;BME280;22766;48.042;11.192;2024-03-02T08:08:59;93995.88;;;6.16;100.00
36828;BME280;22766;48.042;11.192;2024-03-02T08:11:26;93994.94;;;6.17;100.00
36828;BME280;22766;48.042;11.192;2024-03-02T08:13:53;93991.81;;;6.31;100.00
36828;BME280;22766;48.042;11.192;2024-03-02T08:16:23;93998.59;;;6.40;100.00
36828;BME280;22766;48.042;11.192;2024-03-02T08:18:50;94001.13;;;6.32;100.00
36828;BME280;22766;48.042;11.192;2024-03-02T08:21:17;94002.72;;;6.58;100.00
36828;BME280;22766;48.042;11.192;2024-03-02T08:23:44;93998.22;;;6.94;100.00
36828;BME280;22766;48.042;11.192;2024-03-02T08:26:11;93993.50;;;7.15;100.00
36828;BME280;22766;48.042;11.192;2024-03-02T08:28:39;93995.31;;;7.47;100.00
36828;BME280;22766;48.042;11.192;2024-03-02T08:31:09;94000.69;;;7.86;100.00
36828;BME280;22766;48.042;11.192;2024-03-02T08:33:36;93995.69;;;7.76;100.00
36828;BME280;22766;48.042;11.192;2024-03-02T08:36:05;93994.56;;;7.87;100.00
36828;BME280;22766;48.042;11.192;2024-03-02T08:38:32;93999.38;;;7.57;100.00
36828;BME280;22766;48.042;11.192;2024-03-02T08:40:59;94005.44;;;7.48;100.00
36828;BME280;22766;48.042;11.192;2024-03-02T08:43:26;94006.75;;;7.69;100.00
36828;BME280;22766;48.042;11.192;2024-03-02T08:45:53;94004.53;;;7.90;100.00
36828;BME280;22766;48.042;11.192;2024-03-02T08:48:20;94013.50;;;8.02;100.00
36828;BME280;22766;48.042;11.192;2024-03-02T08:50:47;94009.03;;;8.20;100.00
36828;BME280;22766;48.042;11.192;2024-03-02T08:53:14;94014.34;;;8.42;100.00
36828;BME280;22766;48.042;11.192;2024-03-02T08:55:48;94010.94;;;8.58;100.00
36828;BME280;22766;48.042;11.192;2024-03-02T08:58:15;94012.63;;;8.90;100.00
36828;BME280;22766;48.042;11.192;2024-03-02T09:00:42;94003.97;;;9.21;100.00
36828;BME280;22766;48.042;11.192;2024-03-02T09:03:09;93997.91;;;9.68;100.00
36828;BME280;22766;48.042;11.192;2024-03-02T09:05:36;94002.22;;;9.75;100.00
36828;BME280;22766;48.042;11.192;2024-03-02T09:08:03;94003.25;;;9.89;100.00
36828;BME280;22766;48.042;11.192;2024-03-02T09:10:30;94004.47;;;10.01;100.00
36828;BME280;22766;48.042;11.192;2024-03-02T09:12:58;94000.09;;;9.79;100.00
36828;BME280;22766;48.042;11.192;2024-03-02T09:15:25;94002.28;;;9.90;100.00
36828;BME280;22766;48.042;11.192;2024-03-02T09:17:52;94009.00;;;9.99;100.00
36828;BME280;22766;48.042;11.192;2024-03-02T09:20:19;93999.84;;;10.33;100.00
36828;BME280;22766;48.042;11.192;2024-03-02T09:22:45;93992.53;;;10.60;100.00
36828;BME280;22766;48.042;11.192;2024-03-02T09:25:15;93996.06;;;10.59;100.00
36828;BME280;22766;48.042;11.192;2024-03-02T09:27:42;93992.09;;;10.71;100.00
36828;BME280;22766;48.042;11.192;2024-03-02T09:30:10;93991.47;;;10.98;100.00
36828;BME280;22766;48.042;11.192;2024-03-02T09:32:37;93985.59;;;10.89;100.00
36828;BME280;22766;48.042;11.192;2024-03-02T09:35:04;93987.72;;;11.00;100.00
36828;BME280;22766;48.042;11.192;2024-03-02T09:37:32;93989.03;;;11.25;100.00
36828;BME280;22766;48.042;11.192;2024-03-02T09:39:58;93981.91;;;11.27;100.00
36828;BME280;22766;48.042;11.192;2024-03-02T09:42:26;93985.06;;;11.08;100.00
36828;BME280;22766;48.042;11.192;2024-03-02T09:44:53;93977.28;;;11.23;100.00
36828;BME280;22766;48.042;11.192;2024-03-02T09:47:19;93970.91;;;11.55;100.00
36828;BME280;22766;48.042;11.192;2024-03-02T09:49:47;93974.13;;;11.78;100.00
36828;BME280;22766;48.042;11.192;2024-03-02T09:52:14;93981.66;;;11.94;100.00
36828;BME280;22766;48.042;11.192;2024-03-02T09:54:41;93981.47;;;11.95;100.00
36828;BME280;22766;48.042;11.192;2024-03-02T09:57:08;93982.28;;;11.96;100.00
36828;BME280;22766;48.042;11.192;2024-03-02T09:59:36;93989.28;;;12.02;100.00
36828;BME280;22766;48.042;11.192;2024-03-02T10:02:03;93974.63;;;11.88;100.00
36828;BME280;22766;48.042;11.192;2024-03-02T10:04:30;93977.47;;;11.57;100.00
36828;BME280;22766;48.042;11.192;2024-03-02T10:07:13;93975.25;;;11.18;100.00
36828;BME280;22766;48.042;11.192;2024-03-02T10:09:45;93977.72;;;11.26;100.00
36828;BME280;22766;48.042;11.192;2024-03-02T10:12:13;93974.25;;;11.19;100.00
36828;BME280;22766;48.042;11.192;2024-03-02T10:14:41;93966.50;;;11.19;100.00
36828;BME280;22766;48.042;11.192;2024-03-02T10:17:10;93969.34;;;11.60;100.00
36828;BME280;22766;48.042;11.192;2024-03-02T10:19:38;93975.44;;;11.88;100.00
36828;BME280;22766;48.042;11.192;2024-03-02T10:22:07;93968.72;;;12.43;100.00
36828;BME280;22766;48.042;11.192;2024-03-02T10:24:39;93965.75;;;12.73;99.79
36828;BME280;22766;48.042;11.192;2024-03-02T10:27:15;93965.31;;;12.70;97.64
36828;BME280;22766;48.042;11.192;2024-03-02T10:29:46;93967.44;;;12.60;93.34
36828;BME280;22766;48.042;11.192;2024-03-02T10:32:15;93969.84;;;12.61;95.94
36828;BME280;22766;48.042;11.192;2024-03-02T10:34:44;93959.72;;;12.39;95.92
36828;BME280;22766;48.042;11.192;2024-03-02T10:37:12;93957.09;;;12.32;98.63
36828;BME280;22766;48.042;11.192;2024-03-02T10:39:40;93957.22;;;12.24;95.67
36828;BME280;22766;48.042;11.192;2024-03-02T10:42:08;93952.94;;;12.65;99.14
36828;BME280;22766;48.042;11.192;2024-03-02T10:44:35;93949.66;;;12.84;96.94
36828;BME280;22766;48.042;11.192;2024-03-02T10:47:04;93939.00;;;13.00;93.56
36828;BME280;22766;48.042;11.192;2024-03-02T10:49:32;93948.28;;;12.82;98.00
36828;BME280;22766;48.042;11.192;2024-03-02T10:51:59;93940.81;;;12.66;97.86
36828;BME280;22766;48.042;11.192;2024-03-02T10:54:27;93940.44;;;12.41;100.00
36828;BME280;22766;48.042;11.192;2024-03-02T10:56:59;93934.63;;;12.33;100.00
36828;BME280;22766;48.042;11.192;2024-03-02T10:59:33;93930.03;;;12.62;100.00
36828;BME280;22766;48.042;11.192;2024-03-02T11:02:01;93926.09;;;12.73;100.00
36828;BME280;22766;48.042;11.192;2024-03-02T11:04:32;93922.13;;;12.77;100.00
36828;BME280;22766;48.042;11.192;2024-03-02T11:07:03;93921.50;;;12.68;100.00
36828;BME280;22766;48.042;11.192;2024-03-02T11:09:32;93912.16;;;12.74;100.00
36828;BME280;22766;48.042;11.192;2024-03-02T11:12:02;93912.28;;;12.93;100.00
36828;BME280;22766;48.042;11.192;2024-03-02T11:14:30;93909.69;;;13.00;100.00
36828;BME280;22766;48.042;11.192;2024-03-02T11:17:00;93903.91;;;12.98;100.00
36828;BME280;22766;48.042;11.192;2024-03-02T11:19:28;93905.59;;;13.12;99.27
36828;BME280;22766;48.042;11.192;2024-03-02T11:21:56;93909.56;;;13.08;98.02
36828;BME280;22766;48.042;11.192;2024-03-02T11:26:51;93899.84;;;13.23;98.65
36828;BME280;22766;48.042;11.192;2024-03-02T11:32:04;93885.97;;;13.70;95.20
36828;BME280;22766;48.042;11.192;2024-03-02T11:34:35;93880.63;;;13.91;93.64
36828;BME280;22766;48.042;11.192;2024-03-02T11:37:03;93885.22;;;13.82;92.63
36828;BME280;22766;48.042;11.192;2024-03-02T11:39:30;93881.63;;;13.90;93.67
36828;BME280;22766;48.042;11.192;2024-03-02T11:41:58;93877.22;;;14.10;89.84
36828;BME280;22766;48.042;11.192;2024-03-02T11:44:29;93872.03;;;13.97;91.57
36828;BME280;22766;48.042;11.192;2024-03-02T11:46:59;93868.84;;;13.95;90.06
36828;BME280;22766;48.042;11.192;2024-03-02T11:49:50;93861.47;;;13.92;90.69
36828;BME280;22766;48.042;11.192;2024-03-02T11:52:18;93852.84;;;14.57;82.62
36828;BME280;22766;48.042;11.192;2024-03-02T11:54:46;93853.34;;;14.85;83.30
36828;BME280;22766;48.042;11.192;2024-03-02T11:57:19;93853.31;;;15.42;74.72
36828;BME280;22766;48.042;11.192;2024-03-02T11:59:46;93840.34;;;16.16;67.12
36828;BME280;22766;48.042;11.192;2024-03-02T12:02:20;93838.47;;;16.23;66.03
36828;BME280;22766;48.042;11.192;2024-03-02T12:04:49;93828.31;;;17.12;59.49
36828;BME280;22766;48.042;11.192;2024-03-02T12:07:20;93818.00;;;17.77;60.07
36828;BME280;22766;48.042;11.192;2024-03-02T12:09:48;93820.56;;;18.52;54.36
36828;BME280;22766;48.042;11.192;2024-03-02T12:12:15;93813.69;;;19.82;49.64
36828;BME280;22766;48.042;11.192;2024-03-02T12:14:51;93804.75;;;19.67;47.67
36828;BME280;22766;48.042;11.192;2024-03-02T12:17:19;93810.59;;;19.29;47.32
36828;BME280;22766;48.042;11.192;2024-03-02T12:19:46;93803.44;;;20.14;47.60
36828;BME280;22766;48.042;11.192;2024-03-02T12:22:13;93797.88;;;19.77;46.51
36828;BME280;22766;48.042;11.192;2024-03-02T12:24:41;93797.72;;;19.67;45.61
36828;BME280;22766;48.042;11.192;2024-03-02T12:27:08;93788.59;;;20.96;46.63
36828;BME280;22766;48.042;11.192;2024-03-02T12:29:35;93776.50;;;21.38;42.37
36828;BME280;22766;48.042;11.192;2024-03-02T12:32:02;93783.69;;;21.48;42.36
36828;BME280;22766;48.042;11.192;2024-03-02T12:34:29;93774.56;;;21.28;41.58
36828;BME280;22766;48.042;11.192;2024-03-02T12:36:56;93762.09;;;21.41;41.91
36828;BME280;22766;48.042;11.192;2024-03-02T12:39:23;93761.28;;;21.67;42.30
36828;BME280;22766;48.042;11.192;2024-03-02T12:41:51;93759.81;;;22.12;41.57
36828;BME280;22766;48.042;11.192;2024-03-02T12:44:18;93753.31;;;22.62;40.07
36828;BME280;22766;48.042;11.192;2024-03-02T12:46:46;93753.56;;;22.18;39.09
36828;BME280;22766;48.042;11.192;2024-03-02T12:49:14;93740.69;;;21.85;40.59
36828;BME280;22766;48.042;11.192;2024-03-02T12:51:47;93740.88;;;21.79;41.04
36828;BME280;22766;48.042;11.192;2024-03-02T12:54:22;93740.44;;;21.60;39.45
36828;BME280;22766;48.042;11.192;2024-03-02T12:56:49;93735.44;;;21.59;41.36
36828;BME280;22766;48.042;11.192;2024-03-02T12:59:20;93728.00;;;22.09;40.26